sensor_id;sensor_type;location;lat;lon;timestamp;P1;durP1;ratioP1;P2;durP2;ratioP2
10977;SDS011;5542;48.272;10.794;2022-08-19T00:01:15;1.10;;;1.10;;
10977;SDS011;5542;48.272;10.794;2022-08-19T00:03:42;1.00;;;1.00;;
10977;SDS011;5542;48.272;10.794;2022-08-19T00:06:09;1.20;;;1.20;;
10977;SDS011;5542;48.272;10.794;2022-08-19T00:08:35;1.50;;;1.40;;
10977;SDS011;5542;48.272;10.794;2022-08-19T00:11:02;1.38;;;1.27;;
10977;SDS011;5542;48.272;10.794;2022-08-19T00:13:29;1.27;;;1.23;;
10977;SDS011;5542;48.272;10.794;2022-08-19T00:15:56;1.13;;;1.02;;
10977;SDS011;5542;48.272;10.794;2022-08-19T00:18:24;1.00;;;1.00;;
10977;SDS011;5542;48.272;10.794;2022-08-19T00:20:51;1.80;;;1.70;;
10977;SDS011;5542;48.272;10.794;2022-08-19T00:23:18;1.80;;;1.70;;
10977;SDS011;5542;48.272;10.794;2022-08-19T00:25:45;1.23;;;1.20;;
10977;SDS011;5542;48.272;10.794;2022-08-19T00:28:11;1.35;;;1.30;;
10977;SDS011;5542;48.272;10.794;2022-08-19T00:30:38;1.00;;;1.00;;
10977;SDS011;5542;48.272;10.794;2022-08-19T00:33:05;1.27;;;1.27;;
10977;SDS011;5542;48.272;10.794;2022-08-19T00:35:34;1.35;;;1.30;;
10977;SDS011;5542;48.272;10.794;2022-08-19T00:38:03;1.30;;;1.30;;
10977;SDS011;5542;48.272;10.794;2022-08-19T00:40:31;1.17;;;1.17;;
10977;SDS011;5542;48.272;10.794;2022-08-19T00:42:58;1.25;;;1.20;;
10977;SDS011;5542;48.272;10.794;2022-08-19T00:45:25;0.95;;;0.95;;
10977;SDS011;5542;48.272;10.794;2022-08-19T00:47:57;1.02;;;1.02;;
10977;SDS011;5542;48.272;10.794;2022-08-19T00:50:24;1.35;;;1.27;;
10977;SDS011;5542;48.272;10.794;2022-08-19T00:52:52;1.10;;;1.10;;
10977;SDS011;5542;48.272;10.794;2022-08-19T00:55:20;0.95;;;0.95;;
10977;SDS011;5542;48.272;10.794;2022-08-19T00:57:50;1.70;;;1.60;;
10977;SDS011;5542;48.272;10.794;2022-08-19T01:00:20;1.50;;;1.40;;
10977;SDS011;5542;48.272;10.794;2022-08-19T01:02:48;1.23;;;1.10;;
10977;SDS011;5542;48.272;10.794;2022-08-19T01:05:16;1.90;;;1.80;;
10977;SDS011;5542;48.272;10.794;2022-08-19T01:07:46;1.42;;;1.40;;
10977;SDS011;5542;48.272;10.794;2022-08-19T01:10:15;1.33;;;1.33;;
10977;SDS011;5542;48.272;10.794;2022-08-19T01:12:45;1.67;;;1.58;;
10977;SDS011;5542;48.272;10.794;2022-08-19T01:15:14;2.45;;;2.30;;
10977;SDS011;5542;48.272;10.794;2022-08-19T01:17:43;1.88;;;1.77;;
10977;SDS011;5542;48.272;10.794;2022-08-19T01:20:12;2.20;;;2.10;;
10977;SDS011;5542;48.272;10.794;2022-08-19T01:22:44;2.70;;;2.50;;
10977;SDS011;5542;48.272;10.794;2022-08-19T01:25:13;2.40;;;2.30;;
10977;SDS011;5542;48.272;10.794;2022-08-19T01:27:41;2.47;;;2.38;;
10977;SDS011;5542;48.272;10.794;2022-08-19T01:30:10;2.65;;;2.53;;
10977;SDS011;5542;48.272;10.794;2022-08-19T01:32:39;2.90;;;2.70;;
10977;SDS011;5542;48.272;10.794;2022-08-19T01:35:06;3.28;;;3.08;;
10977;SDS011;5542;48.272;10.794;2022-08-19T01:37:42;2.85;;;2.65;;
10977;SDS011;5542;48.272;10.794;2022-08-19T01:40:14;3.63;;;3.38;;
10977;SDS011;5542;48.272;10.794;2022-08-19T01:42:40;4.00;;;3.70;;
10977;SDS011;5542;48.272;10.794;2022-08-19T01:45:07;3.95;;;3.65;;
10977;SDS011;5542;48.272;10.794;2022-08-19T01:47:35;4.50;;;4.10;;
10977;SDS011;5542;48.272;10.794;2022-08-19T01:50:03;4.30;;;4.00;;
10977;SDS011;5542;48.272;10.794;2022-08-19T01:52:31;4.22;;;3.83;;
10977;SDS011;5542;48.272;10.794;2022-08-19T01:54:59;4.22;;;3.92;;
10977;SDS011;5542;48.272;10.794;2022-08-19T01:57:26;3.37;;;3.10;;
10977;SDS011;5542;48.272;10.794;2022-08-19T01:59:52;3.53;;;3.30;;
10977;SDS011;5542;48.272;10.794;2022-08-19T02:02:19;3.65;;;3.35;;
10977;SDS011;5542;48.272;10.794;2022-08-19T02:04:46;3.95;;;3.65;;
10977;SDS011;5542;48.272;10.794;2022-08-19T02:07:12;4.27;;;3.97;;
10977;SDS011;5542;48.272;10.794;2022-08-19T02:09:39;4.90;;;4.50;;
10977;SDS011;5542;48.272;10.794;2022-08-19T02:12:07;4.25;;;3.95;;
10977;SDS011;5542;48.272;10.794;2022-08-19T02:14:34;4.03;;;3.72;;
10977;SDS011;5542;48.272;10.794;2022-08-19T02:17:01;3.47;;;3.28;;
10977;SDS011;5542;48.272;10.794;2022-08-19T02:19:28;4.32;;;4.00;;
10977;SDS011;5542;48.272;10.794;2022-08-19T02:21:56;4.95;;;4.55;;
10977;SDS011;5542;48.272;10.794;2022-08-19T02:24:23;5.75;;;5.25;;
10977;SDS011;5542;48.272;10.794;2022-08-19T02:26:50;4.63;;;4.25;;
10977;SDS011;5542;48.272;10.794;2022-08-19T02:29:18;6.03;;;5.43;;
10977;SDS011;5542;48.272;10.794;2022-08-19T02:31:45;6.55;;;5.95;;
10977;SDS011;5542;48.272;10.794;2022-08-19T02:34:13;5.85;;;5.35;;
10977;SDS011;5542;48.272;10.794;2022-08-19T02:36:39;5.50;;;5.00;;
10977;SDS011;5542;48.272;10.794;2022-08-19T02:39:06;6.55;;;5.95;;
10977;SDS011;5542;48.272;10.794;2022-08-19T02:41:32;5.93;;;5.32;;
10977;SDS011;5542;48.272;10.794;2022-08-19T02:44:00;6.72;;;6.13;;
10977;SDS011;5542;48.272;10.794;2022-08-19T02:46:30;6.35;;;5.85;;
10977;SDS011;5542;48.272;10.794;2022-08-19T02:48:59;6.50;;;5.90;;
10977;SDS011;5542;48.272;10.794;2022-08-19T02:51:28;5.53;;;4.97;;
10977;SDS011;5542;48.272;10.794;2022-08-19T02:53:56;6.75;;;6.05;;
10977;SDS011;5542;48.272;10.794;2022-08-19T02:56:23;6.97;;;6.25;;
10977;SDS011;5542;48.272;10.794;2022-08-19T02:58:52;6.70;;;6.10;;
10977;SDS011;5542;48.272;10.794;2022-08-19T03:01:20;6.67;;;6.07;;
10977;SDS011;5542;48.272;10.794;2022-08-19T03:03:49;5.28;;;4.88;;
10977;SDS011;5542;48.272;10.794;2022-08-19T03:06:17;5.00;;;4.60;;
10977;SDS011;5542;48.272;10.794;2022-08-19T03:08:44;4.40;;;4.00;;
10977;SDS011;5542;48.272;10.794;2022-08-19T03:11:13;5.68;;;5.18;;
10977;SDS011;5542;48.272;10.794;2022-08-19T03:13:40;4.40;;;4.00;;
10977;SDS011;5542;48.272;10.794;2022-08-19T03:16:08;6.13;;;5.63;;
10977;SDS011;5542;48.272;10.794;2022-08-19T03:18:35;6.22;;;5.63;;
10977;SDS011;5542;48.272;10.794;2022-08-19T03:21:03;5.57;;;5.07;;
10977;SDS011;5542;48.272;10.794;2022-08-19T03:23:30;5.20;;;4.80;;
10977;SDS011;5542;48.272;10.794;2022-08-19T03:25:57;5.28;;;4.88;;
10977;SDS011;5542;48.272;10.794;2022-08-19T03:28:24;6.53;;;5.78;;
10977;SDS011;5542;48.272;10.794;2022-08-19T03:30:54;6.18;;;5.68;;
10977;SDS011;5542;48.272;10.794;2022-08-19T03:33:23;8.60;;;7.70;;
10977;SDS011;5542;48.272;10.794;2022-08-19T03:38:45;5.85;;;5.35;;
10977;SDS011;5542;48.272;10.794;2022-08-19T03:41:14;6.78;;;6.18;;
10977;SDS011;5542;48.272;10.794;2022-08-19T03:43:42;6.53;;;5.93;;
10977;SDS011;5542;48.272;10.794;2022-08-19T03:46:13;6.20;;;5.70;;
10977;SDS011;5542;48.272;10.794;2022-08-19T03:48:42;6.00;;;5.50;;
10977;SDS011;5542;48.272;10.794;2022-08-19T03:51:15;5.90;;;5.40;;
10977;SDS011;5542;48.272;10.794;2022-08-19T03:53:45;6.30;;;5.70;;
10977;SDS011;5542;48.272;10.794;2022-08-19T03:56:13;5.43;;;4.93;;
10977;SDS011;5542;48.272;10.794;2022-08-19T03:58:40;6.85;;;6.20;;
10977;SDS011;5542;48.272;10.794;2022-08-19T04:01:07;8.07;;;7.38;;
10977;SDS011;5542;48.272;10.794;2022-08-19T04:03:35;5.80;;;5.30;;
10977;SDS011;5542;48.272;10.794;2022-08-19T04:06:08;6.70;;;6.10;;
10977;SDS011;5542;48.272;10.794;2022-08-19T04:08:39;8.43;;;7.63;;
10977;SDS011;5542;48.272;10.794;2022-08-19T04:11:07;9.07;;;8.17;;
10977;SDS011;5542;48.272;10.794;2022-08-19T04:13:34;7.50;;;6.80;;
10977;SDS011;5542;48.272;10.794;2022-08-19T04:16:01;6.57;;;5.93;;
10977;SDS011;5542;48.272;10.794;2022-08-19T04:18:28;9.55;;;8.63;;
10977;SDS011;5542;48.272;10.794;2022-08-19T04:20:56;7.65;;;6.95;;
10977;SDS011;5542;48.272;10.794;2022-08-19T04:23:23;8.48;;;7.68;;
10977;SDS011;5542;48.272;10.794;2022-08-19T04:25:51;7.10;;;6.47;;
10977;SDS011;5542;48.272;10.794;2022-08-19T04:28:17;7.45;;;6.75;;
10977;SDS011;5542;48.272;10.794;2022-08-19T04:30:45;6.95;;;6.35;;
10977;SDS011;5542;48.272;10.794;2022-08-19T04:33:14;6.72;;;6.13;;
10977;SDS011;5542;48.272;10.794;2022-08-19T04:35:43;6.95;;;6.25;;
10977;SDS011;5542;48.272;10.794;2022-08-19T04:38:11;9.38;;;8.48;;
10977;SDS011;5542;48.272;10.794;2022-08-19T04:40:39;7.68;;;6.90;;
10977;SDS011;5542;48.272;10.794;2022-08-19T04:43:25;8.27;;;7.47;;
10977;SDS011;5542;48.272;10.794;2022-08-19T04:45:53;5.82;;;5.32;;
10977;SDS011;5542;48.272;10.794;2022-08-19T04:48:19;6.63;;;6.03;;
10977;SDS011;5542;48.272;10.794;2022-08-19T04:50:51;7.18;;;6.47;;
10977;SDS011;5542;48.272;10.794;2022-08-19T04:53:22;5.85;;;5.35;;
10977;SDS011;5542;48.272;10.794;2022-08-19T04:55:50;7.05;;;6.45;;
10977;SDS011;5542;48.272;10.794;2022-08-19T04:58:17;5.93;;;5.43;;
10977;SDS011;5542;48.272;10.794;2022-08-19T05:00:45;6.50;;;5.90;;
10977;SDS011;5542;48.272;10.794;2022-08-19T05:03:11;5.97;;;5.47;;
10977;SDS011;5542;48.272;10.794;2022-08-19T05:05:40;5.45;;;4.97;;
10977;SDS011;5542;48.272;10.794;2022-08-19T05:08:08;5.47;;;4.97;;
10977;SDS011;5542;48.272;10.794;2022-08-19T05:10:35;6.20;;;5.60;;
10977;SDS011;5542;48.272;10.794;2022-08-19T05:13:02;4.85;;;4.45;;
10977;SDS011;5542;48.272;10.794;2022-08-19T05:15:29;4.10;;;3.80;;
10977;SDS011;5542;48.272;10.794;2022-08-19T05:17:58;4.40;;;4.10;;
10977;SDS011;5542;48.272;10.794;2022-08-19T05:20:50;4.40;;;4.00;;
10977;SDS011;5542;48.272;10.794;2022-08-19T05:23:35;6.00;;;5.45;;
10977;SDS011;5542;48.272;10.794;2022-08-19T05:26:01;7.28;;;6.57;;
10977;SDS011;5542;48.272;10.794;2022-08-19T05:28:29;6.65;;;6.05;;
10977;SDS011;5542;48.272;10.794;2022-08-19T05:30:56;5.97;;;5.47;;
10977;SDS011;5542;48.272;10.794;2022-08-19T05:33:24;5.70;;;5.20;;
10977;SDS011;5542;48.272;10.794;2022-08-19T05:35:52;4.63;;;4.22;;
10977;SDS011;5542;48.272;10.794;2022-08-19T05:38:19;4.32;;;4.03;;
10977;SDS011;5542;48.272;10.794;2022-08-19T05:40:46;4.70;;;4.30;;
10977;SDS011;5542;48.272;10.794;2022-08-19T05:43:14;3.72;;;3.42;;
10977;SDS011;5542;48.272;10.794;2022-08-19T05:45:41;3.97;;;3.67;;
10977;SDS011;5542;48.272;10.794;2022-08-19T05:48:08;4.07;;;3.78;;
10977;SDS011;5542;48.272;10.794;2022-08-19T05:50:38;3.70;;;3.40;;
10977;SDS011;5542;48.272;10.794;2022-08-19T05:53:05;4.32;;;3.95;;
10977;SDS011;5542;48.272;10.794;2022-08-19T05:55:31;4.97;;;4.57;;
10977;SDS011;5542;48.272;10.794;2022-08-19T05:57:58;7.18;;;6.30;;
10977;SDS011;5542;48.272;10.794;2022-08-19T06:00:26;5.13;;;4.68;;
10977;SDS011;5542;48.272;10.794;2022-08-19T06:02:55;5.82;;;5.32;;
10977;SDS011;5542;48.272;10.794;2022-08-19T06:05:24;4.60;;;4.20;;
10977;SDS011;5542;48.272;10.794;2022-08-19T06:07:52;4.80;;;4.40;;
10977;SDS011;5542;48.272;10.794;2022-08-19T06:10:19;5.68;;;5.18;;
10977;SDS011;5542;48.272;10.794;2022-08-19T06:12:46;6.32;;;5.72;;
10977;SDS011;5542;48.272;10.794;2022-08-19T06:15:14;5.45;;;4.95;;
10977;SDS011;5542;48.272;10.794;2022-08-19T06:17:41;6.82;;;6.20;;
10977;SDS011;5542;48.272;10.794;2022-08-19T06:20:10;6.55;;;5.95;;
10977;SDS011;5542;48.272;10.794;2022-08-19T06:22:38;5.88;;;5.38;;
10977;SDS011;5542;48.272;10.794;2022-08-19T06:25:08;6.13;;;5.55;;
10977;SDS011;5542;48.272;10.794;2022-08-19T06:27:35;5.00;;;4.60;;
10977;SDS011;5542;48.272;10.794;2022-08-19T06:30:02;7.38;;;6.68;;
10977;SDS011;5542;48.272;10.794;2022-08-19T06:32:30;9.80;;;8.82;;
10977;SDS011;5542;48.272;10.794;2022-08-19T06:34:56;6.47;;;5.88;;
10977;SDS011;5542;48.272;10.794;2022-08-19T06:37:23;6.30;;;5.70;;
10977;SDS011;5542;48.272;10.794;2022-08-19T06:39:50;8.82;;;7.90;;
10977;SDS011;5542;48.272;10.794;2022-08-19T06:42:18;7.40;;;6.70;;
10977;SDS011;5542;48.272;10.794;2022-08-19T06:44:45;6.60;;;6.00;;
10977;SDS011;5542;48.272;10.794;2022-08-19T06:47:15;5.63;;;5.13;;
10977;SDS011;5542;48.272;10.794;2022-08-19T06:49:43;9.80;;;8.43;;
10977;SDS011;5542;48.272;10.794;2022-08-19T06:52:09;9.95;;;8.70;;
10977;SDS011;5542;48.272;10.794;2022-08-19T06:54:37;7.13;;;6.43;;
10977;SDS011;5542;48.272;10.794;2022-08-19T06:57:05;8.20;;;7.40;;
10977;SDS011;5542;48.272;10.794;2022-08-19T06:59:35;11.23;;;9.73;;
10977;SDS011;5542;48.272;10.794;2022-08-19T07:02:03;9.73;;;8.27;;
10977;SDS011;5542;48.272;10.794;2022-08-19T07:04:31;8.02;;;7.22;;
10977;SDS011;5542;48.272;10.794;2022-08-19T07:07:00;7.68;;;6.97;;
10977;SDS011;5542;48.272;10.794;2022-08-19T07:09:28;9.00;;;8.10;;
10977;SDS011;5542;48.272;10.794;2022-08-19T07:11:55;7.28;;;6.53;;
10977;SDS011;5542;48.272;10.794;2022-08-19T07:14:23;5.88;;;5.28;;
10977;SDS011;5542;48.272;10.794;2022-08-19T07:16:53;6.72;;;6.13;;
10977;SDS011;5542;48.272;10.794;2022-08-19T07:19:22;12.35;;;10.30;;
10977;SDS011;5542;48.272;10.794;2022-08-19T07:21:51;9.70;;;8.65;;
10977;SDS011;5542;48.272;10.794;2022-08-19T07:24:19;8.02;;;7.22;;
10977;SDS011;5542;48.272;10.794;2022-08-19T07:26:49;7.97;;;7.18;;
10977;SDS011;5542;48.272;10.794;2022-08-19T07:29:16;8.38;;;7.53;;
10977;SDS011;5542;48.272;10.794;2022-08-19T07:31:43;8.32;;;7.53;;
10977;SDS011;5542;48.272;10.794;2022-08-19T07:34:11;9.32;;;8.32;;
10977;SDS011;5542;48.272;10.794;2022-08-19T07:36:40;7.28;;;6.57;;
10977;SDS011;5542;48.272;10.794;2022-08-19T07:39:09;6.55;;;5.93;;
10977;SDS011;5542;48.272;10.794;2022-08-19T07:41:41;11.10;;;10.00;;
10977;SDS011;5542;48.272;10.794;2022-08-19T07:44:09;8.93;;;8.02;;
10977;SDS011;5542;48.272;10.794;2022-08-19T07:46:38;8.70;;;7.80;;
10977;SDS011;5542;48.272;10.794;2022-08-19T07:49:07;12.90;;;10.73;;
10977;SDS011;5542;48.272;10.794;2022-08-19T07:51:43;11.23;;;9.95;;
10977;SDS011;5542;48.272;10.794;2022-08-19T07:54:10;8.77;;;7.97;;
10977;SDS011;5542;48.272;10.794;2022-08-19T07:56:37;13.38;;;11.27;;
10977;SDS011;5542;48.272;10.794;2022-08-19T07:59:04;8.80;;;7.90;;
10977;SDS011;5542;48.272;10.794;2022-08-19T08:01:32;10.20;;;9.20;;
10977;SDS011;5542;48.272;10.794;2022-08-19T08:03:58;15.43;;;12.98;;
10977;SDS011;5542;48.272;10.794;2022-08-19T08:06:44;10.20;;;8.90;;
10977;SDS011;5542;48.272;10.794;2022-08-19T08:09:29;13.77;;;12.27;;
10977;SDS011;5542;48.272;10.794;2022-08-19T08:11:58;13.52;;;11.05;;
10977;SDS011;5542;48.272;10.794;2022-08-19T08:14:27;16.13;;;12.93;;
10977;SDS011;5542;48.272;10.794;2022-08-19T08:16:56;12.15;;;10.70;;
10977;SDS011;5542;48.272;10.794;2022-08-19T08:19:24;13.98;;;11.50;;
10977;SDS011;5542;48.272;10.794;2022-08-19T08:21:54;12.43;;;10.13;;
10977;SDS011;5542;48.272;10.794;2022-08-19T08:24:22;13.00;;;10.75;;
10977;SDS011;5542;48.272;10.794;2022-08-19T08:26:48;9.73;;;8.50;;
10977;SDS011;5542;48.272;10.794;2022-08-19T08:29:14;10.77;;;9.30;;
10977;SDS011;5542;48.272;10.794;2022-08-19T08:31:42;10.57;;;9.25;;
10977;SDS011;5542;48.272;10.794;2022-08-19T08:34:10;9.63;;;8.63;;
10977;SDS011;5542;48.272;10.794;2022-08-19T08:36:38;8.80;;;7.90;;
10977;SDS011;5542;48.272;10.794;2022-08-19T08:39:08;9.82;;;8.82;;
10977;SDS011;5542;48.272;10.794;2022-08-19T08:41:37;8.23;;;7.43;;
10977;SDS011;5542;48.272;10.794;2022-08-19T08:44:13;7.65;;;6.88;;
10977;SDS011;5542;48.272;10.794;2022-08-19T08:46:48;8.50;;;7.30;;
10977;SDS011;5542;48.272;10.794;2022-08-19T08:49:26;6.18;;;5.45;;
10977;SDS011;5542;48.272;10.794;2022-08-19T08:52:00;5.50;;;5.00;;
10977;SDS011;5542;48.272;10.794;2022-08-19T08:54:32;5.10;;;4.70;;
10977;SDS011;5542;48.272;10.794;2022-08-19T08:57:04;7.57;;;6.88;;
10977;SDS011;5542;48.272;10.794;2022-08-19T08:59:36;7.03;;;6.32;;
10977;SDS011;5542;48.272;10.794;2022-08-19T09:02:06;7.47;;;6.38;;
10977;SDS011;5542;48.272;10.794;2022-08-19T09:04:33;10.05;;;8.98;;
10977;SDS011;5542;48.272;10.794;2022-08-19T09:07:03;7.97;;;7.07;;
10977;SDS011;5542;48.272;10.794;2022-08-19T09:09:50;8.00;;;7.20;;
10977;SDS011;5542;48.272;10.794;2022-08-19T09:12:19;9.10;;;8.20;;
10977;SDS011;5542;48.272;10.794;2022-08-19T09:14:53;8.20;;;7.40;;
10977;SDS011;5542;48.272;10.794;2022-08-19T09:17:25;6.70;;;6.10;;
10977;SDS011;5542;48.272;10.794;2022-08-19T09:20:04;5.60;;;5.10;;
10977;SDS011;5542;48.272;10.794;2022-08-19T09:22:33;11.00;;;9.02;;
10977;SDS011;5542;48.272;10.794;2022-08-19T09:25:02;7.10;;;6.40;;
10977;SDS011;5542;48.272;10.794;2022-08-19T09:27:30;8.50;;;7.53;;
10977;SDS011;5542;48.272;10.794;2022-08-19T09:29:58;7.00;;;6.30;;
10977;SDS011;5542;48.272;10.794;2022-08-19T09:32:25;7.47;;;6.78;;
10977;SDS011;5542;48.272;10.794;2022-08-19T09:34:52;7.57;;;6.78;;
10977;SDS011;5542;48.272;10.794;2022-08-19T09:37:19;6.82;;;6.22;;
10977;SDS011;5542;48.272;10.794;2022-08-19T09:39:46;6.80;;;6.10;;
10977;SDS011;5542;48.272;10.794;2022-08-19T09:42:14;6.03;;;5.43;;
10977;SDS011;5542;48.272;10.794;2022-08-19T09:44:41;7.03;;;5.80;;
10977;SDS011;5542;48.272;10.794;2022-08-19T09:47:08;5.10;;;4.70;;
10977;SDS011;5542;48.272;10.794;2022-08-19T09:49:36;4.78;;;4.38;;
10977;SDS011;5542;48.272;10.794;2022-08-19T09:52:04;5.45;;;4.95;;
10977;SDS011;5542;48.272;10.794;2022-08-19T09:54:32;5.50;;;5.00;;
10977;SDS011;5542;48.272;10.794;2022-08-19T09:57:00;9.30;;;8.40;;
10977;SDS011;5542;48.272;10.794;2022-08-19T09:59:28;6.32;;;5.72;;
10977;SDS011;5542;48.272;10.794;2022-08-19T10:01:55;7.97;;;7.15;;
10977;SDS011;5542;48.272;10.794;2022-08-19T10:04:22;9.02;;;7.78;;
10977;SDS011;5542;48.272;10.794;2022-08-19T10:07:09;7.03;;;6.32;;
10977;SDS011;5542;48.272;10.794;2022-08-19T10:09:35;6.72;;;6.00;;
10977;SDS011;5542;48.272;10.794;2022-08-19T10:12:02;5.13;;;4.72;;
10977;SDS011;5542;48.272;10.794;2022-08-19T10:14:32;5.13;;;4.63;;
10977;SDS011;5542;48.272;10.794;2022-08-19T10:16:59;4.68;;;4.22;;
10977;SDS011;5542;48.272;10.794;2022-08-19T10:19:27;5.15;;;4.65;;
10977;SDS011;5542;48.272;10.794;2022-08-19T10:21:55;5.50;;;5.00;;
10977;SDS011;5542;48.272;10.794;2022-08-19T10:24:22;4.78;;;4.38;;
10977;SDS011;5542;48.272;10.794;2022-08-19T10:26:50;5.63;;;5.13;;
10977;SDS011;5542;48.272;10.794;2022-08-19T10:29:17;4.90;;;4.50;;
10977;SDS011;5542;48.272;10.794;2022-08-19T10:31:45;3.97;;;3.67;;
10977;SDS011;5542;48.272;10.794;2022-08-19T10:34:13;4.93;;;4.43;;
10977;SDS011;5542;48.272;10.794;2022-08-19T10:36:40;5.07;;;4.68;;
10977;SDS011;5542;48.272;10.794;2022-08-19T10:39:07;4.93;;;4.53;;
10977;SDS011;5542;48.272;10.794;2022-08-19T10:41:37;5.28;;;4.78;;
10977;SDS011;5542;48.272;10.794;2022-08-19T10:44:05;4.90;;;4.40;;
10977;SDS011;5542;48.272;10.794;2022-08-19T10:46:35;5.63;;;4.90;;
10977;SDS011;5542;48.272;10.794;2022-08-19T10:49:08;5.22;;;4.72;;
10977;SDS011;5542;48.272;10.794;2022-08-19T10:51:36;5.13;;;4.63;;
10977;SDS011;5542;48.272;10.794;2022-08-19T10:54:21;4.43;;;4.03;;
10977;SDS011;5542;48.272;10.794;2022-08-19T10:56:48;4.50;;;4.10;;
10977;SDS011;5542;48.272;10.794;2022-08-19T10:59:17;5.07;;;4.68;;
10977;SDS011;5542;48.272;10.794;2022-08-19T11:01:45;4.23;;;3.70;;
10977;SDS011;5542;48.272;10.794;2022-08-19T11:04:14;4.50;;;4.10;;
10977;SDS011;5542;48.272;10.794;2022-08-19T11:06:42;4.05;;;3.60;;
10977;SDS011;5542;48.272;10.794;2022-08-19T11:09:12;2.65;;;2.45;;
10977;SDS011;5542;48.272;10.794;2022-08-19T11:11:40;3.20;;;3.00;;
10977;SDS011;5542;48.272;10.794;2022-08-19T11:14:07;3.38;;;3.08;;
10977;SDS011;5542;48.272;10.794;2022-08-19T11:16:34;3.60;;;3.30;;
10977;SDS011;5542;48.272;10.794;2022-08-19T11:19:04;3.05;;;2.85;;
10977;SDS011;5542;48.272;10.794;2022-08-19T11:21:34;3.00;;;2.70;;
10977;SDS011;5542;48.272;10.794;2022-08-19T11:24:05;3.55;;;3.25;;
10977;SDS011;5542;48.272;10.794;2022-08-19T11:26:33;3.15;;;2.90;;
10977;SDS011;5542;48.272;10.794;2022-08-19T11:29:02;3.15;;;2.92;;
10977;SDS011;5542;48.272;10.794;2022-08-19T11:31:31;4.10;;;3.50;;
10977;SDS011;5542;48.272;10.794;2022-08-19T11:34:01;3.38;;;3.10;;
10977;SDS011;5542;48.272;10.794;2022-08-19T11:36:30;2.92;;;2.72;;
10977;SDS011;5542;48.272;10.794;2022-08-19T11:38:59;2.17;;;2.08;;
10977;SDS011;5542;48.272;10.794;2022-08-19T11:41:26;2.50;;;2.30;;
10977;SDS011;5542;48.272;10.794;2022-08-19T11:43:53;2.07;;;1.97;;
10977;SDS011;5542;48.272;10.794;2022-08-19T11:46:21;3.00;;;2.80;;
10977;SDS011;5542;48.272;10.794;2022-08-19T11:48:49;3.07;;;2.87;;
10977;SDS011;5542;48.272;10.794;2022-08-19T11:51:16;2.60;;;2.40;;
10977;SDS011;5542;48.272;10.794;2022-08-19T11:53:46;3.25;;;2.95;;
10977;SDS011;5542;48.272;10.794;2022-08-19T11:56:14;2.67;;;2.47;;
10977;SDS011;5542;48.272;10.794;2022-08-19T11:58:41;2.50;;;2.30;;
10977;SDS011;5542;48.272;10.794;2022-08-19T12:01:08;2.50;;;2.30;;
10977;SDS011;5542;48.272;10.794;2022-08-19T12:03:36;2.67;;;2.47;;
10977;SDS011;5542;48.272;10.794;2022-08-19T12:06:03;2.42;;;2.22;;
10977;SDS011;5542;48.272;10.794;2022-08-19T12:08:31;2.30;;;2.20;;
10977;SDS011;5542;48.272;10.794;2022-08-19T12:10:57;2.55;;;2.35;;
10977;SDS011;5542;48.272;10.794;2022-08-19T12:13:27;2.42;;;2.30;;
10977;SDS011;5542;48.272;10.794;2022-08-19T12:15:55;2.20;;;2.10;;
10977;SDS011;5542;48.272;10.794;2022-08-19T12:18:23;2.22;;;2.03;;
10977;SDS011;5542;48.272;10.794;2022-08-19T12:20:50;1.80;;;1.70;;
10977;SDS011;5542;48.272;10.794;2022-08-19T12:23:19;2.13;;;2.03;;
10977;SDS011;5542;48.272;10.794;2022-08-19T12:25:47;2.25;;;2.05;;
10977;SDS011;5542;48.272;10.794;2022-08-19T12:28:16;1.90;;;1.80;;
10977;SDS011;5542;48.272;10.794;2022-08-19T12:30:45;2.00;;;1.90;;
10977;SDS011;5542;48.272;10.794;2022-08-19T12:33:11;1.95;;;1.85;;
10977;SDS011;5542;48.272;10.794;2022-08-19T12:35:39;1.95;;;1.85;;
10977;SDS011;5542;48.272;10.794;2022-08-19T12:38:06;2.10;;;2.00;;
10977;SDS011;5542;48.272;10.794;2022-08-19T12:40:32;1.95;;;1.85;;
10977;SDS011;5542;48.272;10.794;2022-08-19T12:42:59;2.03;;;1.92;;
10977;SDS011;5542;48.272;10.794;2022-08-19T12:45:26;2.20;;;2.10;;
10977;SDS011;5542;48.272;10.794;2022-08-19T12:47:54;2.40;;;2.28;;
10977;SDS011;5542;48.272;10.794;2022-08-19T12:50:21;2.58;;;2.38;;
10977;SDS011;5542;48.272;10.794;2022-08-19T12:52:47;3.13;;;2.83;;
10977;SDS011;5542;48.272;10.794;2022-08-19T12:55:15;2.88;;;2.67;;
10977;SDS011;5542;48.272;10.794;2022-08-19T12:57:43;2.25;;;2.15;;
10977;SDS011;5542;48.272;10.794;2022-08-19T13:00:12;3.00;;;2.72;;
10977;SDS011;5542;48.272;10.794;2022-08-19T13:02:42;3.00;;;2.72;;
10977;SDS011;5542;48.272;10.794;2022-08-19T13:05:12;3.38;;;3.13;;
10977;SDS011;5542;48.272;10.794;2022-08-19T13:07:40;3.13;;;2.92;;
10977;SDS011;5542;48.272;10.794;2022-08-19T13:10:09;3.43;;;3.13;;
10977;SDS011;5542;48.272;10.794;2022-08-19T13:12:37;3.70;;;3.40;;
10977;SDS011;5542;48.272;10.794;2022-08-19T13:15:06;3.05;;;2.85;;
10977;SDS011;5542;48.272;10.794;2022-08-19T13:17:33;3.60;;;3.30;;
10977;SDS011;5542;48.272;10.794;2022-08-19T13:20:00;3.28;;;3.08;;
10977;SDS011;5542;48.272;10.794;2022-08-19T13:22:28;3.95;;;3.65;;
10977;SDS011;5542;48.272;10.794;2022-08-19T13:24:55;3.47;;;3.17;;
10977;SDS011;5542;48.272;10.794;2022-08-19T13:27:22;3.58;;;3.28;;
10977;SDS011;5542;48.272;10.794;2022-08-19T13:29:48;4.50;;;4.10;;
10977;SDS011;5542;48.272;10.794;2022-08-19T13:32:32;4.53;;;4.13;;
10977;SDS011;5542;48.272;10.794;2022-08-19T13:35:16;4.25;;;3.95;;
10977;SDS011;5542;48.272;10.794;2022-08-19T13:37:45;5.32;;;4.82;;
10977;SDS011;5542;48.272;10.794;2022-08-19T13:40:14;4.35;;;3.95;;
10977;SDS011;5542;48.272;10.794;2022-08-19T13:42:44;3.90;;;3.60;;
10977;SDS011;5542;48.272;10.794;2022-08-19T13:45:12;3.88;;;3.58;;
10977;SDS011;5542;48.272;10.794;2022-08-19T13:47:40;5.00;;;4.60;;
10977;SDS011;5542;48.272;10.794;2022-08-19T13:50:08;5.22;;;4.72;;
10977;SDS011;5542;48.272;10.794;2022-08-19T13:52:35;3.60;;;3.30;;
10977;SDS011;5542;48.272;10.794;2022-08-19T13:55:04;5.22;;;4.72;;
10977;SDS011;5542;48.272;10.794;2022-08-19T13:57:31;5.55;;;5.03;;
10977;SDS011;5542;48.272;10.794;2022-08-19T13:59:57;4.60;;;4.20;;
10977;SDS011;5542;48.272;10.794;2022-08-19T14:02:24;4.97;;;4.47;;
10977;SDS011;5542;48.272;10.794;2022-08-19T14:04:51;5.22;;;4.75;;
10977;SDS011;5542;48.272;10.794;2022-08-19T14:07:18;4.83;;;4.43;;
10977;SDS011;5542;48.272;10.794;2022-08-19T14:09:45;4.90;;;4.50;;
10977;SDS011;5542;48.272;10.794;2022-08-19T14:12:13;4.30;;;4.00;;
10977;SDS011;5542;48.272;10.794;2022-08-19T14:14:39;5.13;;;4.65;;
10977;SDS011;5542;48.272;10.794;2022-08-19T14:17:06;4.80;;;4.40;;
10977;SDS011;5542;48.272;10.794;2022-08-19T14:19:33;4.50;;;4.10;;
10977;SDS011;5542;48.272;10.794;2022-08-19T14:21:59;3.85;;;3.55;;
10977;SDS011;5542;48.272;10.794;2022-08-19T14:24:26;4.25;;;3.95;;
10977;SDS011;5542;48.272;10.794;2022-08-19T14:26:53;4.65;;;4.18;;
10977;SDS011;5542;48.272;10.794;2022-08-19T14:29:21;3.90;;;3.60;;
10977;SDS011;5542;48.272;10.794;2022-08-19T14:31:47;3.70;;;3.40;;
10977;SDS011;5542;48.272;10.794;2022-08-19T14:34:14;4.25;;;3.85;;
10977;SDS011;5542;48.272;10.794;2022-08-19T14:36:41;3.40;;;3.13;;
10977;SDS011;5542;48.272;10.794;2022-08-19T14:39:07;3.38;;;3.08;;
10977;SDS011;5542;48.272;10.794;2022-08-19T14:41:35;2.72;;;2.53;;
10977;SDS011;5542;48.272;10.794;2022-08-19T14:44:02;4.03;;;3.72;;
10977;SDS011;5542;48.272;10.794;2022-08-19T14:46:30;3.80;;;3.50;;
10977;SDS011;5542;48.272;10.794;2022-08-19T14:48:57;3.10;;;2.90;;
10977;SDS011;5542;48.272;10.794;2022-08-19T14:51:24;3.65;;;3.35;;
10977;SDS011;5542;48.272;10.794;2022-08-19T14:53:52;3.58;;;3.28;;
10977;SDS011;5542;48.272;10.794;2022-08-19T14:56:20;4.03;;;3.72;;